createdAt,value
2023-05-21T00:02:12.010Z,6.72
2023-05-21T00:04:40.879Z,9.18
2023-05-21T00:07:09.720Z,11.07
2023-05-21T00:09:41.958Z,8.88
2023-05-21T00:12:10.595Z,10.52
2023-05-21T00:14:41.552Z,11.85
2023-05-21T00:17:10.510Z,8.75
2023-05-21T00:19:41.649Z,9.45
2023-05-21T00:22:12.134Z,10.15
2023-05-21T00:24:42.878Z,7.38
2023-05-21T00:27:16.532Z,7.00
2023-05-21T00:29:45.070Z,6.57
2023-05-21T00:32:13.472Z,9.43
2023-05-21T00:34:42.533Z,7.72
2023-05-21T00:37:16.459Z,11.00
2023-05-21T00:39:45.063Z,6.85
2023-05-21T00:42:18.213Z,7.10
2023-05-21T00:44:46.981Z,8.15
2023-05-21T00:47:18.301Z,6.72
2023-05-21T00:49:48.200Z,8.55
2023-05-21T00:52:20.225Z,10.48
2023-05-21T00:54:50.327Z,6.88
2023-05-21T00:57:21.660Z,7.25
2023-05-21T00:59:52.073Z,4.68
2023-05-21T01:02:24.325Z,5.55
2023-05-21T01:04:56.952Z,6.47
2023-05-21T01:07:25.283Z,7.68
2023-05-21T01:09:54.853Z,7.05
2023-05-21T01:12:24.446Z,4.75
2023-05-21T01:14:57.619Z,6.85
2023-05-21T01:17:26.870Z,8.45
2023-05-21T01:19:56.799Z,11.90
2023-05-21T01:22:26.017Z,7.20
2023-05-21T01:24:57.772Z,5.38
2023-05-21T01:27:26.712Z,6.78
2023-05-21T01:29:56.167Z,5.05
2023-05-21T01:32:49.805Z,5.28
2023-05-21T01:35:23.269Z,5.82
2023-05-21T01:37:52.020Z,6.65
2023-05-21T01:40:40.714Z,5.60
2023-05-21T01:43:09.889Z,10.82
2023-05-21T01:45:40.593Z,4.88
2023-05-21T01:48:13.123Z,4.50
2023-05-21T01:53:12.984Z,4.60
2023-05-21T01:55:41.995Z,4.03
2023-05-21T01:58:16.972Z,5.30
2023-05-21T02:00:52.015Z,3.72
2023-05-21T02:03:42.482Z,3.35
2023-05-21T02:06:15.926Z,6.35
2023-05-21T02:08:49.741Z,4.60
2023-05-21T02:11:23.333Z,4.93
2023-05-21T02:13:52.434Z,5.55
2023-05-21T02:16:22.461Z,5.13
2023-05-21T02:18:53.647Z,4.10
2023-05-21T02:21:22.885Z,3.55
2023-05-21T02:23:51.184Z,4.47
2023-05-21T02:26:21.879Z,4.47
2023-05-21T02:28:56.658Z,4.73
2023-05-21T02:31:25.225Z,6.43
2023-05-21T02:33:53.621Z,3.80
2023-05-21T02:36:25.359Z,7.50
2023-05-21T02:38:53.873Z,4.95
2023-05-21T02:41:23.193Z,5.57
2023-05-21T02:43:51.987Z,5.15
2023-05-21T02:46:21.563Z,5.32
2023-05-21T02:48:50.937Z,3.80
2023-05-21T02:51:20.231Z,3.30
2023-05-21T02:53:49.204Z,3.97
2023-05-21T02:58:51.958Z,4.15
2023-05-21T03:01:21.466Z,3.47
2023-05-21T03:03:50.413Z,3.22
2023-05-21T03:06:20.102Z,4.90
2023-05-21T03:08:51.445Z,6.45
2023-05-21T03:11:22.480Z,3.85
2023-05-21T03:13:55.588Z,3.72
2023-05-21T03:16:25.781Z,4.90
2023-05-21T03:18:54.390Z,4.88
2023-05-21T03:21:24.918Z,4.05
2023-05-21T03:23:58.661Z,4.50
2023-05-21T03:26:30.922Z,4.18
2023-05-21T03:29:02.756Z,4.82
2023-05-21T03:31:32.590Z,5.72
2023-05-21T03:34:09.091Z,3.85
2023-05-21T03:36:40.969Z,5.70
2023-05-21T03:39:19.996Z,4.18
2023-05-21T03:41:50.443Z,3.75
2023-05-21T03:44:27.071Z,4.35
2023-05-21T03:47:02.070Z,5.40
2023-05-21T03:49:34.893Z,3.63
2023-05-21T03:52:06.052Z,4.15
2023-05-21T03:54:37.182Z,4.68
2023-05-21T03:57:10.904Z,4.45
2023-05-21T03:59:39.241Z,3.47
2023-05-21T04:02:10.440Z,6.30
2023-05-21T04:04:39.506Z,5.38
2023-05-21T04:07:14.464Z,5.78
2023-05-21T04:09:45.576Z,3.95
2023-05-21T04:12:22.442Z,5.80
2023-05-21T04:15:05.763Z,5.45
2023-05-21T04:17:53.383Z,3.22
2023-05-21T04:20:41.312Z,6.47
2023-05-21T04:23:23.636Z,5.32
2023-05-21T04:25:58.216Z,4.55
2023-05-21T04:28:42.135Z,5.93
2023-05-21T04:31:18.113Z,4.88
2023-05-21T04:33:53.007Z,5.43
2023-05-21T04:36:21.208Z,4.32
2023-05-21T04:38:50.261Z,11.45
2023-05-21T04:41:21.229Z,4.15
2023-05-21T04:43:55.317Z,4.85
2023-05-21T04:46:28.104Z,4.88
2023-05-21T04:48:56.910Z,4.72
2023-05-21T04:51:26.821Z,5.43
2023-05-21T04:53:57.985Z,4.88
2023-05-21T04:56:35.530Z,6.85
2023-05-21T04:59:20.086Z,4.55
2023-05-21T05:01:56.290Z,4.95
2023-05-21T05:04:27.686Z,5.32
2023-05-21T05:06:58.998Z,4.50
2023-05-21T05:09:35.312Z,5.57
2023-05-21T05:12:15.618Z,3.95
2023-05-21T05:14:51.286Z,4.32
2023-05-21T05:17:21.502Z,6.28
2023-05-21T05:19:53.095Z,7.10
2023-05-21T05:22:27.946Z,4.57
2023-05-21T05:24:56.827Z,5.05
2023-05-21T05:27:26.270Z,6.95
2023-05-21T05:29:55.401Z,5.55
2023-05-21T05:32:24.812Z,6.05
2023-05-21T05:34:54.249Z,5.55
2023-05-21T05:37:23.435Z,6.38
2023-05-21T05:39:51.898Z,7.28
2023-05-21T05:42:20.925Z,7.32
2023-05-21T05:44:50.545Z,6.22
2023-05-21T05:47:23.070Z,5.85
2023-05-21T05:49:51.807Z,4.65
2023-05-21T05:52:21.862Z,5.55
2023-05-21T05:54:50.282Z,6.15
2023-05-21T05:57:18.627Z,6.93
2023-05-21T05:59:49.962Z,6.22
2023-05-21T06:02:25.239Z,7.25
2023-05-21T06:04:53.726Z,6.03
2023-05-21T06:07:24.538Z,5.82
2023-05-21T06:09:52.994Z,4.75
2023-05-21T06:12:21.680Z,5.28
2023-05-21T06:14:52.813Z,5.78
2023-05-21T06:17:27.080Z,5.65
2023-05-21T06:20:01.554Z,8.48
2023-05-21T06:22:37.912Z,7.35
2023-05-21T06:25:13.048Z,7.85
2023-05-21T06:27:43.214Z,13.52
2023-05-21T06:30:19.246Z,7.30
2023-05-21T06:32:55.432Z,6.57
2023-05-21T06:35:24.613Z,6.15
2023-05-21T06:37:54.194Z,5.80
2023-05-21T06:40:24.222Z,6.15
2023-05-21T06:42:56.647Z,5.65
2023-05-21T06:45:44.172Z,5.03
2023-05-21T06:48:36.070Z,7.00
2023-05-21T06:51:07.386Z,5.20
2023-05-21T06:53:35.760Z,6.13
2023-05-21T06:56:08.458Z,8.65
2023-05-21T06:58:39.027Z,9.65
2023-05-21T07:01:12.156Z,6.07
2023-05-21T07:03:48.522Z,6.82
2023-05-21T07:06:18.495Z,5.60
2023-05-21T07:08:49.825Z,7.70
2023-05-21T07:11:18.808Z,6.38
2023-05-21T07:13:50.639Z,6.90
2023-05-21T07:16:24.169Z,8.60
2023-05-21T07:18:52.492Z,9.40
2023-05-21T07:21:20.999Z,5.75
2023-05-21T07:23:50.756Z,6.60
2023-05-21T07:26:20.100Z,7.05
2023-05-21T07:28:48.846Z,8.57
2023-05-21T07:31:20.184Z,5.50
2023-05-21T07:33:52.344Z,9.77
2023-05-21T07:36:26.047Z,8.52
2023-05-21T07:38:55.031Z,7.03
2023-05-21T07:41:25.733Z,6.55
2023-05-21T07:43:57.980Z,7.15
2023-05-21T07:46:27.190Z,7.85
2023-05-21T07:49:00.156Z,8.55
2023-05-21T07:51:30.923Z,6.07
2023-05-21T07:53:59.943Z,7.43
2023-05-21T07:56:39.703Z,8.30
2023-05-21T07:59:17.680Z,8.93
2023-05-21T08:01:46.303Z,7.32
2023-05-21T08:04:17.566Z,6.60
2023-05-21T08:06:48.514Z,9.55
2023-05-21T08:09:18.186Z,8.77
2023-05-21T08:11:49.643Z,9.55
2023-05-21T08:14:18.575Z,7.35
2023-05-21T08:16:48.170Z,8.73
2023-05-21T08:19:17.427Z,11.85
2023-05-21T08:21:47.608Z,9.25
2023-05-21T08:24:18.115Z,9.27
2023-05-21T08:26:50.937Z,8.90
2023-05-21T08:29:20.523Z,6.35
2023-05-21T08:31:49.233Z,9.68
2023-05-21T08:34:18.557Z,8.15
2023-05-21T08:36:55.493Z,11.38
2023-05-21T08:39:55.287Z,11.65
2023-05-21T08:42:37.126Z,10.80
2023-05-21T08:45:10.564Z,9.77
2023-05-21T08:47:43.185Z,11.32
2023-05-21T08:50:15.445Z,10.02
2023-05-21T08:52:44.878Z,8.60
2023-05-21T08:55:17.028Z,7.28
2023-05-21T08:57:45.511Z,9.32
2023-05-21T09:00:20.804Z,11.57
2023-05-21T09:03:11.299Z,10.00
2023-05-21T09:08:31.009Z,9.13
2023-05-21T09:11:03.809Z,11.80
2023-05-21T09:13:44.643Z,8.23
2023-05-21T09:16:22.498Z,8.88
2023-05-21T09:18:54.295Z,10.48
2023-05-21T09:21:31.667Z,10.38
2023-05-21T09:24:17.379Z,9.77
2023-05-21T09:26:46.385Z,10.93
2023-05-21T09:29:15.601Z,8.35
2023-05-21T09:31:45.933Z,9.63
2023-05-21T09:36:53.587Z,8.55
2023-05-21T09:41:53.860Z,9.73
2023-05-21T09:44:22.951Z,10.30
2023-05-21T09:46:52.474Z,13.20
2023-05-21T09:49:28.019Z,8.35
2023-05-21T09:52:01.387Z,11.50
2023-05-21T09:54:35.220Z,11.52
2023-05-21T09:57:04.420Z,9.93
2023-05-21T09:59:39.409Z,9.02
2023-05-21T10:02:17.687Z,10.07
2023-05-21T10:04:50.249Z,11.93
2023-05-21T10:07:21.722Z,9.90
2023-05-21T10:09:50.644Z,9.60
2023-05-21T10:12:23.728Z,10.18
2023-05-21T10:15:04.054Z,14.20
2023-05-21T10:17:37.546Z,8.53
2023-05-21T10:20:07.176Z,9.20
2023-05-21T10:25:11.937Z,8.23
2023-05-21T10:27:42.929Z,10.00
2023-05-21T10:30:12.811Z,9.55
2023-05-21T10:32:57.249Z,9.25
2023-05-21T10:35:29.621Z,14.13
2023-05-21T10:38:00.084Z,9.80
2023-05-21T10:40:28.795Z,8.40
2023-05-21T10:43:17.754Z,10.55
2023-05-21T10:45:51.652Z,10.90
2023-05-21T10:48:35.033Z,10.95
2023-05-21T10:51:15.152Z,11.85
2023-05-21T10:54:00.030Z,9.80
2023-05-21T10:56:39.182Z,11.27
2023-05-21T10:59:27.789Z,10.98
2023-05-21T11:01:57.008Z,11.82
2023-05-21T11:04:27.765Z,9.05
2023-05-21T11:09:27.610Z,8.45
2023-05-21T11:12:04.667Z,13.40
2023-05-21T11:14:39.916Z,8.02
2023-05-21T11:17:38.079Z,11.30
2023-05-21T11:20:15.113Z,9.52
2023-05-21T11:22:43.280Z,9.30
2023-05-21T11:25:15.497Z,11.38
2023-05-21T11:27:44.046Z,9.68
2023-05-21T11:30:19.734Z,11.52
2023-05-21T11:33:11.263Z,9.40
2023-05-21T11:35:56.304Z,9.65
2023-05-21T11:38:24.597Z,10.35
2023-05-21T11:40:55.805Z,10.35
2023-05-21T11:43:27.491Z,9.10
2023-05-21T11:45:58.432Z,9.65
2023-05-21T11:48:31.817Z,8.73
2023-05-21T11:51:04.053Z,8.95
2023-05-21T11:53:33.117Z,10.13
2023-05-21T11:56:02.872Z,7.93
2023-05-21T11:58:35.407Z,8.68
2023-05-21T12:01:05.385Z,10.55
2023-05-21T12:03:46.723Z,10.50
2023-05-21T12:06:18.535Z,12.77
2023-05-21T12:08:58.515Z,9.73
2023-05-21T12:11:27.890Z,7.78
2023-05-21T12:13:59.543Z,11.38
2023-05-21T12:16:28.382Z,10.73
2023-05-21T12:18:57.996Z,10.45
2023-05-21T12:21:31.522Z,9.43
2023-05-21T12:24:00.669Z,10.63
2023-05-21T12:26:33.131Z,9.73
2023-05-21T12:29:02.179Z,7.47
2023-05-21T12:31:33.018Z,11.20
2023-05-21T12:34:02.284Z,8.65
2023-05-21T12:36:34.510Z,7.82
2023-05-21T12:39:05.959Z,9.73
2023-05-21T12:41:35.473Z,7.78
2023-05-21T12:44:05.681Z,8.38
2023-05-21T12:46:35.330Z,8.32
2023-05-21T12:49:07.049Z,9.23
2023-05-21T12:51:42.713Z,10.25
2023-05-21T12:56:46.294Z,7.15
2023-05-21T12:59:16.397Z,9.77
2023-05-21T13:01:49.054Z,8.43
2023-05-21T13:04:20.645Z,9.20
2023-05-21T13:06:49.028Z,7.70
2023-05-21T13:09:17.740Z,9.60
2023-05-21T13:11:47.067Z,10.98
2023-05-21T13:14:15.509Z,10.18
2023-05-21T13:16:43.992Z,8.68
2023-05-21T13:19:15.326Z,8.98
2023-05-21T13:21:47.151Z,7.97
2023-05-21T13:24:17.682Z,11.02
2023-05-21T13:26:51.803Z,7.97
2023-05-21T13:29:20.760Z,9.20
2023-05-21T13:31:49.517Z,10.32
2023-05-21T13:34:18.294Z,8.25
2023-05-21T13:36:49.633Z,10.43
2023-05-21T13:39:19.473Z,8.70
2023-05-21T13:41:48.969Z,9.85
2023-05-21T13:44:20.231Z,11.18
2023-05-21T13:46:49.722Z,10.63
2023-05-21T13:49:18.031Z,8.85
2023-05-21T13:51:46.550Z,6.82
2023-05-21T13:54:15.781Z,10.50
2023-05-21T13:56:45.951Z,8.35
2023-05-21T13:59:16.332Z,8.23
2023-05-21T14:01:50.602Z,12.95
2023-05-21T14:04:19.647Z,9.68
2023-05-21T14:06:49.096Z,8.25
2023-05-21T14:09:17.916Z,8.73
2023-05-21T14:11:51.713Z,6.47
2023-05-21T14:14:21.560Z,6.43
2023-05-21T14:16:50.582Z,8.52
2023-05-21T14:19:19.618Z,10.45
2023-05-21T14:21:53.991Z,8.55
2023-05-21T14:24:24.916Z,7.75
2023-05-21T14:26:53.695Z,8.52
2023-05-21T14:29:22.247Z,6.38
2023-05-21T14:31:50.631Z,7.80
2023-05-21T14:34:19.812Z,7.28
2023-05-21T14:36:48.900Z,7.20
2023-05-21T14:39:19.974Z,11.77
2023-05-21T14:41:51.502Z,9.75
2023-05-21T14:44:20.082Z,8.75
2023-05-21T14:46:54.177Z,8.30
2023-05-21T14:49:24.720Z,7.35
2023-05-21T14:51:53.912Z,9.00
2023-05-21T14:54:25.503Z,7.70
2023-05-21T14:56:54.227Z,8.30
2023-05-21T14:59:22.837Z,6.70
2023-05-21T15:01:52.005Z,6.55
2023-05-21T15:04:21.458Z,8.93
2023-05-21T15:06:50.409Z,10.73
2023-05-21T15:09:19.115Z,6.93
2023-05-21T15:11:52.411Z,9.38
2023-05-21T15:14:23.507Z,6.47
2023-05-21T15:16:52.336Z,7.38
2023-05-21T15:19:21.527Z,6.75
2023-05-21T15:21:52.488Z,9.90
2023-05-21T15:24:21.327Z,8.00
2023-05-21T15:26:50.850Z,7.85
2023-05-21T15:29:23.260Z,10.57
2023-05-21T15:31:51.727Z,8.05
2023-05-21T15:34:20.334Z,6.70
2023-05-21T15:36:48.941Z,7.13
2023-05-21T15:39:18.431Z,10.82
2023-05-21T15:41:50.512Z,8.80
2023-05-21T15:44:19.432Z,8.82
2023-05-21T15:46:51.355Z,8.43
2023-05-21T15:49:22.115Z,8.07
2023-05-21T15:51:51.628Z,7.70
2023-05-21T15:54:21.586Z,8.23
2023-05-21T15:56:54.445Z,8.07
2023-05-21T15:59:27.491Z,8.48
2023-05-21T16:01:58.859Z,8.27
2023-05-21T16:04:27.835Z,10.48
2023-05-21T16:06:57.891Z,9.15
2023-05-21T16:09:27.568Z,8.48
2023-05-21T16:11:56.258Z,7.30
2023-05-21T16:14:33.344Z,9.55
2023-05-21T16:17:03.239Z,7.07
2023-05-21T16:19:33.108Z,6.88
2023-05-21T16:22:02.369Z,6.25
2023-05-21T16:24:34.928Z,5.50
2023-05-21T16:27:05.037Z,7.63
2023-05-21T16:29:39.318Z,11.68
2023-05-21T16:32:14.238Z,5.80
2023-05-21T16:34:48.006Z,7.80
2023-05-21T16:37:19.025Z,5.97
2023-05-21T16:39:49.612Z,11.95
2023-05-21T16:42:19.149Z,6.05
2023-05-21T16:44:47.936Z,8.40
2023-05-21T16:47:17.550Z,7.28
2023-05-21T16:49:48.440Z,6.75
2023-05-21T16:52:17.411Z,6.82
2023-05-21T16:54:48.950Z,8.73
2023-05-21T16:57:19.317Z,6.05
2023-05-21T16:59:47.658Z,9.25
2023-05-21T17:02:17.512Z,7.28
2023-05-21T17:04:46.595Z,7.60
2023-05-21T17:07:17.328Z,7.20
2023-05-21T17:09:45.950Z,11.07
2023-05-21T17:12:18.241Z,11.80
2023-05-21T17:14:47.361Z,6.95
2023-05-21T17:17:16.520Z,11.10
2023-05-21T17:19:46.059Z,6.82
2023-05-21T17:22:15.329Z,10.80
2023-05-21T17:24:44.017Z,10.18
2023-05-21T17:27:12.869Z,8.88
2023-05-21T17:29:41.509Z,7.05
2023-05-21T17:32:12.224Z,8.35
2023-05-21T17:34:42.129Z,6.93
2023-05-21T17:37:14.816Z,7.40
2023-05-21T17:39:43.320Z,6.60
2023-05-21T17:42:11.933Z,8.02
2023-05-21T17:44:40.634Z,9.38
2023-05-21T17:47:12.261Z,7.35
2023-05-21T17:49:43.246Z,8.38
2023-05-21T17:52:12.044Z,8.40
2023-05-21T17:54:43.511Z,11.68
2023-05-21T17:57:16.090Z,7.40
2023-05-21T17:59:45.478Z,10.02
2023-05-21T18:02:14.193Z,14.63
2023-05-21T18:04:43.074Z,9.70
2023-05-21T18:07:14.436Z,6.80
2023-05-21T18:09:43.067Z,11.98
2023-05-21T18:12:15.594Z,7.72
2023-05-21T18:14:46.840Z,8.45
2023-05-21T18:17:19.843Z,8.75
2023-05-21T18:19:48.658Z,8.07
2023-05-21T18:22:17.623Z,9.70
2023-05-21T18:24:47.963Z,11.73
2023-05-21T18:27:17.045Z,11.40
2023-05-21T18:29:48.951Z,8.02
2023-05-21T18:32:21.572Z,7.60
2023-05-21T18:34:51.113Z,10.65
2023-05-21T18:37:20.447Z,8.05
2023-05-21T18:39:51.180Z,10.85
2023-05-21T18:42:20.832Z,8.50
2023-05-21T18:44:52.048Z,7.22
2023-05-21T18:47:21.014Z,8.88
2023-05-21T18:49:49.387Z,9.35
2023-05-21T18:52:23.351Z,8.15
2023-05-21T18:54:51.962Z,8.98
2023-05-21T18:57:21.218Z,7.97
2023-05-21T18:59:49.738Z,9.45
2023-05-21T19:02:19.084Z,9.68
2023-05-21T19:04:48.810Z,9.32
2023-05-21T19:07:18.108Z,8.88
2023-05-21T19:09:48.754Z,7.95
2023-05-21T19:12:17.453Z,12.85
2023-05-21T19:14:46.116Z,9.63
2023-05-21T19:17:16.785Z,10.05
2023-05-21T19:19:47.475Z,9.82
2023-05-21T19:22:15.863Z,8.27
2023-05-21T19:24:45.429Z,10.32
2023-05-21T19:27:14.280Z,11.88
2023-05-21T19:29:43.193Z,12.40
2023-05-21T19:32:14.904Z,11.63
2023-05-21T19:34:43.821Z,12.52
2023-05-21T19:37:14.224Z,12.65
2023-05-21T19:39:43.289Z,13.07
2023-05-21T19:42:11.995Z,13.27
2023-05-21T19:44:41.384Z,12.88
2023-05-21T19:47:09.926Z,10.25
2023-05-21T19:49:38.488Z,13.23
2023-05-21T19:52:12.041Z,17.33
2023-05-21T19:54:40.652Z,13.35
2023-05-21T19:57:15.430Z,14.63
2023-05-21T19:59:44.158Z,11.25
2023-05-21T20:02:18.113Z,11.32
2023-05-21T20:04:46.446Z,16.08
2023-05-21T20:07:15.304Z,14.80
2023-05-21T20:09:43.993Z,14.23
2023-05-21T20:12:16.323Z,13.00
2023-05-21T20:14:47.616Z,15.35
2023-05-21T20:17:20.179Z,15.02
2023-05-21T20:19:49.118Z,17.55
2023-05-21T20:22:18.189Z,13.05
2023-05-21T20:24:50.955Z,15.10
2023-05-21T20:27:19.627Z,18.13
2023-05-21T20:29:48.214Z,14.52
2023-05-21T20:32:16.852Z,14.48
2023-05-21T20:35:01.664Z,15.15
2023-05-21T20:37:36.847Z,15.73
2023-05-21T20:40:07.180Z,13.55
2023-05-21T20:42:45.087Z,13.55
2023-05-21T20:45:15.863Z,14.43
2023-05-21T20:47:50.705Z,15.35
2023-05-21T20:50:21.653Z,17.75
2023-05-21T20:52:52.897Z,14.93
2023-05-21T20:55:23.507Z,20.17
2023-05-21T20:57:52.596Z,20.77
2023-05-21T21:00:22.081Z,16.23
2023-05-21T21:03:11.835Z,15.27
2023-05-21T21:05:40.609Z,18.80
2023-05-21T21:08:12.391Z,16.65
2023-05-21T21:10:42.663Z,18.80
2023-05-21T21:13:16.672Z,18.33
2023-05-21T21:15:46.564Z,21.20
2023-05-21T21:18:17.599Z,20.88
2023-05-21T21:20:49.699Z,17.20
2023-05-21T21:23:21.694Z,21.92
2023-05-21T21:25:52.439Z,19.63
2023-05-21T21:28:21.266Z,18.00
2023-05-21T21:30:49.540Z,20.05
2023-05-21T21:33:19.096Z,17.33
2023-05-21T21:35:47.557Z,17.65
2023-05-21T21:38:16.480Z,16.98
2023-05-21T21:40:46.864Z,13.73
2023-05-21T21:43:15.332Z,19.52
2023-05-21T21:45:44.618Z,15.43
2023-05-21T21:48:13.291Z,15.88
2023-05-21T21:50:45.256Z,16.77
2023-05-21T21:53:15.865Z,16.67
2023-05-21T21:55:44.169Z,18.23
2023-05-21T21:58:14.072Z,16.05
2023-05-21T22:00:45.077Z,14.70
2023-05-21T22:03:31.683Z,19.92
2023-05-21T22:06:01.006Z,18.10
2023-05-21T22:08:37.034Z,20.15
2023-05-21T22:11:09.469Z,14.75
2023-05-21T22:13:38.484Z,18.65
2023-05-21T22:16:08.620Z,16.90
2023-05-21T22:18:41.202Z,18.95
2023-05-21T22:21:14.177Z,16.45
2023-05-21T22:23:45.465Z,15.63
2023-05-21T22:26:17.102Z,11.90
2023-05-21T22:28:49.419Z,12.77
2023-05-21T22:31:18.544Z,15.07
2023-05-21T22:33:52.856Z,14.73
2023-05-21T22:36:22.524Z,15.55
2023-05-21T22:38:51.529Z,14.18
2023-05-21T22:41:20.731Z,16.63
2023-05-21T22:43:49.511Z,15.23
2023-05-21T22:46:17.882Z,16.45
2023-05-21T22:48:47.248Z,16.30
2023-05-21T22:51:15.840Z,15.10
2023-05-21T22:53:44.181Z,15.55
2023-05-21T22:56:13.208Z,14.90
2023-05-21T22:58:41.578Z,19.17
2023-05-21T23:01:13.226Z,17.85
2023-05-21T23:03:57.768Z,16.00
2023-05-21T23:06:26.514Z,16.15
2023-05-21T23:08:54.939Z,16.13
2023-05-21T23:11:26.625Z,15.55
2023-05-21T23:13:57.327Z,13.57
2023-05-21T23:16:27.075Z,16.00
2023-05-21T23:18:56.589Z,17.95
2023-05-21T23:21:25.312Z,12.15
2023-05-21T23:23:54.389Z,10.65
2023-05-21T23:26:25.867Z,13.98
2023-05-21T23:28:54.921Z,12.32
2023-05-21T23:31:23.597Z,14.02
2023-05-21T23:33:52.282Z,10.65
2023-05-21T23:36:20.805Z,15.82
2023-05-21T23:38:49.379Z,12.15
2023-05-21T23:41:17.719Z,12.18
2023-05-21T23:43:50.615Z,10.15
2023-05-21T23:46:23.669Z,10.27
2023-05-21T23:48:55.295Z,8.95
2023-05-21T23:51:25.431Z,11.43
2023-05-21T23:53:53.860Z,10.25
2023-05-21T23:56:23.931Z,9.70
2023-05-21T23:58:52.350Z,11.15
